Lilly, Georgia
Current Conditions -  °F | °C
As of 9:55 AM on Wednesday 22 Oct 2014 (Local Time) from KCKF Reporting Station
Clear Clear  
Wind Chill: 59°   Ceiling: Unl
Heat Index: 59°   Visibility: 10mi
Dew Point: 50°   Wind: 5mph
Humidity: 71%   Direction: 360°N
Pressure: 30.1"   Gusts: NA
Location:  32.15°N, 83.88°W
Report Text: KCKF 221355Z AUTO 36004KT 10SM CLR 15/10 A3010 RMK AO2 T01510099
Loading
Personal Weather Stations






























Interactive Weather Map
Tropical Storm Tracking
New forecast layout! Learn more

10-Day Weather Forecast

Advertisements
Track Severe Weather on mobile